Time;durP1;ratioP1;P1;durP2;ratioP2;P2;SDS_P1;SDS_P2;PMS_P1;PMS_P2;Temp;Humidity;BMP_temperature;BMP_pressure;BME280_temperature;BME280_humidity;BME280_pressure;Samples;Min_cycle;Max_cycle;Signal;HPM_P1;HPM_P2
2021/09/23 00:00:57;;;;;;;44.03;32.20;;;13.60;89.60;;;;;;5074819;28;20252;-86
2021/09/23 00:06:04;;;;;;;40.27;28.90;;;13.60;89.60;;;;;;5076412;28;20175;-87
2021/09/23 00:08:30;;;;;;;50.33;31.93;;;13.60;89.70;;;;;;5074697;28;20195;-87
2021/09/23 00:10:55;;;;;;;46.23;33.20;;;13.60;89.60;;;;;;5074735;28;20179;-87
2021/09/23 00:13:24;;;;;;;45.47;32.03;;;13.60;89.70;;;;;;5074814;28;20652;-87
2021/09/23 00:15:50;;;;;;;44.07;30.67;;;13.60;89.60;;;;;;5074729;28;20601;-87
2021/09/23 00:18:18;;;;;;;38.63;30.27;;;13.50;89.60;;;;;;5074619;28;20196;-87
2021/09/23 00:20:46;;;;;;;46.00;32.80;;;13.50;89.60;;;;;;5075582;28;20715;-87
2021/09/23 00:23:13;;;;;;;43.43;31.83;;;13.50;89.80;;;;;;5074510;28;20232;-86
2021/09/23 00:25:39;;;;;;;41.97;32.10;;;13.40;89.80;;;;;;5074376;28;20167;-86
2021/09/23 00:28:06;;;;;;;46.00;34.43;;;13.40;89.90;;;;;;5075603;28;20187;-86
2021/09/23 00:30:33;;;;;;;42.87;32.27;;;13.30;90.00;;;;;;5074436;28;20661;-86
2021/09/23 00:32:58;;;;;;;47.27;34.53;;;13.30;90.20;;;;;;5074315;28;20179;-87
2021/09/23 00:35:25;;;;;;;46.27;35.47;;;13.30;90.20;;;;;;5074422;28;20666;-86
2021/09/23 00:37:50;;;;;;;49.10;34.83;;;13.20;90.30;;;;;;5074384;28;20207;-87
2021/09/23 00:40:17;;;;;;;47.27;35.27;;;13.20;90.40;;;;;;5075581;28;20176;-86
2021/09/23 00:42:47;;;;;;;44.63;35.03;;;13.20;90.30;;;;;;5075293;28;20202;-87
2021/09/23 00:45:14;;;;;;;47.43;36.93;;;13.20;90.30;;;;;;5074090;28;20670;-87
2021/09/23 00:47:40;;;;;;;51.20;36.23;;;13.20;90.30;;;;;;5073930;28;20667;-87
2021/09/23 00:50:07;;;;;;;50.20;36.97;;;13.20;90.30;;;;;;5075286;28;20163;-86
2021/09/23 00:52:35;;;;;;;50.27;35.10;;;13.20;90.30;;;;;;5074001;28;20258;-87
2021/09/23 00:55:01;;;;;;;49.30;35.57;;;13.20;90.30;;;;;;5073853;28;20221;-86
2021/09/23 00:57:27;;;;;;;53.27;37.13;;;13.20;90.30;;;;;;5072321;28;20195;-86
2021/09/23 00:59:53;;;;;;;49.43;37.10;;;13.20;90.40;;;;;;5073782;28;20305;-87
2021/09/23 01:02:20;;;;;;;50.90;38.03;;;13.10;90.50;;;;;;5073550;28;20195;-87
2021/09/23 01:04:46;;;;;;;59.23;38.97;;;13.10;90.40;;;;;;5073672;28;20523;-86
2021/09/23 01:07:13;;;;;;;52.80;39.63;;;13.10;90.40;;;;;;5073497;28;20168;-86
2021/09/23 01:09:43;;;;;;;51.43;39.13;;;13.00;90.40;;;;;;5073480;28;20262;-87
2021/09/23 01:12:09;;;;;;;51.30;38.57;;;13.00;90.60;;;;;;5074708;28;20167;-87
2021/09/23 01:14:35;;;;;;;55.20;39.80;;;13.00;90.60;;;;;;5073592;28;20264;-87
2021/09/23 01:17:01;;;;;;;55.67;39.70;;;13.00;90.70;;;;;;5074888;28;20167;-87
2021/09/23 01:19:26;;;;;;;53.63;37.57;;;13.00;90.60;;;;;;5074590;28;20706;-86
2021/09/23 01:21:52;;;;;;;55.07;38.00;;;13.00;90.70;;;;;;5074431;28;20732;-86
2021/09/23 01:24:17;;;;;;;55.53;42.27;;;13.10;90.60;;;;;;5074433;28;20174;-87
2021/09/23 01:26:48;;;;;;;60.80;39.70;;;13.10;90.70;;;;;;5073839;28;20175;-87
2021/09/23 01:29:13;;;;;;;55.53;40.17;;;13.00;90.80;;;;;;5074411;28;20195;-87
2021/09/23 01:31:39;;;;;;;54.27;41.67;;;13.10;90.90;;;;;;5073197;28;20198;-87
2021/09/23 01:34:05;;;;;;;57.40;42.23;;;13.10;90.90;;;;;;5073080;28;20182;-86
2021/09/23 01:36:30;;;;;;;60.63;42.23;;;13.10;90.90;;;;;;5073008;28;20709;-86
2021/09/23 01:38:56;;;;;;;55.83;40.93;;;13.20;90.80;;;;;;5074050;28;20739;-86
2021/09/23 01:41:22;;;;;;;52.27;39.87;;;13.20;90.40;;;;;;5074483;28;20294;-86
2021/09/23 01:43:47;;;;;;;53.27;39.23;;;13.20;90.30;;;;;;5072865;28;20179;-87
2021/09/23 01:46:13;;;;;;;56.07;39.13;;;13.20;89.90;;;;;;5072818;28;20368;-87
2021/09/23 01:48:38;;;;;;;53.70;38.80;;;13.30;89.80;;;;;;5073889;28;20223;-87
2021/09/23 01:51:04;;;;;;;52.87;38.83;;;13.30;89.90;;;;;;5074026;28;20175;-87
2021/09/23 01:53:30;;;;;;;57.83;41.53;;;13.20;90.10;;;;;;5072587;28;20179;-87
2021/09/23 01:55:55;;;;;;;55.73;40.47;;;13.20;90.10;;;;;;5072809;28;20179;-86
2021/09/23 01:58:21;;;;;;;56.43;42.77;;;13.20;90.10;;;;;;5072444;28;20269;-87
2021/09/23 02:00:46;;;;;;;59.87;42.40;;;13.10;90.00;;;;;;5074195;28;20184;-87
2021/09/23 02:03:12;;;;;;;52.50;40.87;;;13.10;90.10;;;;;;5072504;28;20171;-87
2021/09/23 02:05:39;;;;;;;51.57;40.90;;;13.10;90.00;;;;;;5072570;28;20213;-86
2021/09/23 02:08:05;;;;;;;55.33;40.47;;;13.10;90.00;;;;;;5072949;28;20195;-86
2021/09/23 02:10:31;;;;;;;55.03;42.00;;;13.10;90.00;;;;;;5073680;28;20171;-86
2021/09/23 02:12:57;;;;;;;56.97;42.30;;;13.00;90.00;;;;;;5072418;28;20634;-87
2021/09/23 02:15:23;;;;;;;47.50;36.00;;;13.00;90.00;;;;;;5074007;28;20176;-87
2021/09/23 02:17:48;;;;;;;60.70;43.73;;;12.90;90.20;;;;;;5073735;28;20195;-86
2021/09/23 02:20:15;;;;;;;57.67;42.67;;;12.90;90.20;;;;;;5073869;28;20176;-86
2021/09/23 02:22:41;;;;;;;56.97;41.43;;;12.90;90.10;;;;;;5072230;28;20199;-86
2021/09/23 02:25:07;;;;;;;59.00;45.00;;;12.90;90.00;;;;;;5072382;28;20270;-87
2021/09/23 02:27:32;;;;;;;58.50;43.70;;;12.90;90.10;;;;;;5073508;28;20191;-86
2021/09/23 02:29:58;;;;;;;56.83;42.03;;;13.00;89.90;;;;;;5072402;28;20163;-86
2021/09/23 02:32:24;;;;;;;67.00;42.87;;;12.90;89.80;;;;;;5073321;28;20588;-86
2021/09/23 02:34:50;;;;;;;54.83;41.67;;;12.90;89.80;;;;;;5073539;28;20171;-86
2021/09/23 02:37:16;;;;;;;56.60;39.33;;;12.90;89.70;;;;;;5072142;28;20613;-86
2021/09/23 02:39:42;;;;;;;54.73;39.30;;;12.80;89.60;;;;;;5072206;28;20175;-86
2021/09/23 02:42:07;;;;;;;55.90;41.10;;;12.80;89.70;;;;;;5072043;28;20253;-86
2021/09/23 02:44:33;;;;;;;52.27;39.37;;;12.80;89.70;;;;;;5071926;28;20261;-86
2021/09/23 02:46:59;;;;;;;52.63;38.33;;;12.80;89.60;;;;;;5072248;28;20175;-86
2021/09/23 02:49:24;;;;;;;56.57;39.57;;;12.80;89.50;;;;;;5073303;28;20187;-86
2021/09/23 02:51:50;;;;;;;54.63;37.73;;;12.80;89.40;;;;;;5073261;28;20250;-87
2021/09/23 02:54:16;;;;;;;47.57;37.80;;;12.90;89.30;;;;;;5072028;28;20274;-86
2021/09/23 02:56:41;;;;;;;51.57;40.17;;;12.90;89.00;;;;;;5071885;28;20528;-86
2021/09/23 02:59:07;;;;;;;47.77;39.07;;;12.90;89.00;;;;;;5073085;28;20211;-86
2021/09/23 03:01:32;;;;;;;56.20;39.93;;;12.90;88.80;;;;;;5073207;28;20191;-86
2021/09/23 03:03:58;;;;;;;51.17;39.17;;;12.80;89.00;;;;;;5072618;28;20171;-86
2021/09/23 03:06:24;;;;;;;48.23;37.00;;;12.80;88.90;;;;;;5072026;28;20532;-86
2021/09/23 03:08:50;;;;;;;53.07;40.43;;;12.90;88.60;;;;;;5071940;28;20187;-86
2021/09/23 03:11:15;;;;;;;56.27;41.63;;;12.90;88.50;;;;;;5073309;28;20544;-86
2021/09/23 03:13:41;;;;;;;53.57;40.27;;;12.90;88.50;;;;;;5073217;28;20609;-86
2021/09/23 03:16:07;;;;;;;55.33;40.43;;;12.90;88.20;;;;;;5071823;28;20655;-86
2021/09/23 03:18:32;;;;;;;52.37;38.67;;;13.00;88.10;;;;;;5071690;28;20222;-86
2021/09/23 03:20:58;;;;;;;56.73;38.63;;;12.90;88.00;;;;;;5074259;28;20606;-86
2021/09/23 03:23:24;;;;;;;54.43;35.27;;;12.90;88.20;;;;;;5075644;28;20639;-86
2021/09/23 03:25:51;;;;;;;55.80;39.10;;;12.90;87.90;;;;;;5075655;28;20282;-86
2021/09/23 03:28:18;;;;;;;45.17;36.40;;;12.80;87.80;;;;;;5075615;28;20202;-86
2021/09/23 03:30:44;;;;;;;52.63;37.70;;;12.80;87.80;;;;;;5075536;28;20595;-86
2021/09/23 03:33:09;;;;;;;52.37;38.00;;;12.80;87.80;;;;;;5075582;28;20185;-86
2021/09/23 03:35:37;;;;;;;51.23;36.50;;;12.80;87.90;;;;;;5077103;28;20167;-87
2021/09/23 03:38:04;;;;;;;52.07;35.73;;;12.80;87.80;;;;;;5076656;28;20229;-86
2021/09/23 03:40:30;;;;;;;56.33;37.77;;;12.80;87.80;;;;;;5075521;28;20652;-86
2021/09/23 03:42:56;;;;;;;55.67;38.40;;;12.80;87.60;;;;;;5076937;28;20191;-86
2021/09/23 03:45:23;;;;;;;56.50;39.03;;;12.80;87.60;;;;;;5077054;28;20646;-86
2021/09/23 03:47:49;;;;;;;53.57;39.67;;;12.80;87.40;;;;;;5075207;28;20195;-86
2021/09/23 03:50:16;;;;;;;53.77;37.10;;;12.80;87.40;;;;;;5074995;28;20179;-86
2021/09/23 03:52:42;;;;;;;60.30;38.83;;;12.70;87.40;;;;;;5075211;28;20187;-86
2021/09/23 03:55:09;;;;;;;55.37;38.23;;;12.70;87.50;;;;;;5076482;28;20167;-86
2021/09/23 03:57:34;;;;;;;60.43;40.37;;;12.70;87.60;;;;;;5074808;28;20218;-87
2021/09/23 04:00:00;;;;;;;57.07;39.07;;;12.80;87.30;;;;;;5076372;28;20159;-86
2021/09/23 04:02:26;;;;;;;54.73;38.23;;;12.70;87.50;;;;;;5076211;28;20213;-86
2021/09/23 04:04:51;;;;;;;55.50;36.60;;;12.80;87.20;;;;;;5074936;28;20175;-86
2021/09/23 04:07:17;;;;;;;52.23;35.10;;;12.70;87.10;;;;;;5074702;28;20190;-86
2021/09/23 04:09:43;;;;;;;55.63;39.40;;;12.80;87.10;;;;;;5074829;28;20171;-86
2021/09/23 04:12:09;;;;;;;55.80;37.40;;;12.70;87.10;;;;;;5075848;28;20194;-86
2021/09/23 04:14:35;;;;;;;58.53;39.10;;;12.70;87.10;;;;;;5075958;28;20541;-86
2021/09/23 04:17:00;;;;;;;61.37;40.27;;;12.80;86.70;;;;;;5075870;28;20170;-86
2021/09/23 04:19:26;;;;;;;56.10;39.57;;;12.80;86.60;;;;;;5075838;28;20674;-86
2021/09/23 04:21:52;;;;;;;57.27;38.87;;;12.90;86.70;;;;;;5075791;28;20199;-86
2021/09/23 04:24:18;;;;;;;55.00;36.07;;;12.90;86.30;;;;;;5074609;28;20593;-86
2021/09/23 04:26:45;;;;;;;57.00;37.90;;;12.90;86.10;;;;;;5075666;28;20171;-86
2021/09/23 04:29:10;;;;;;;59.83;37.20;;;12.90;86.40;;;;;;5075595;28;20195;-86
2021/09/23 04:31:37;;;;;;;60.43;39.87;;;12.90;86.00;;;;;;5075538;28;20175;-86
2021/09/23 04:34:02;;;;;;;54.83;36.80;;;12.90;86.20;;;;;;5075658;28;20181;-86
2021/09/23 04:36:28;;;;;;;58.17;35.80;;;12.90;86.10;;;;;;5074567;28;20186;-86
2021/09/23 04:38:54;;;;;;;56.73;38.20;;;12.80;86.00;;;;;;5074176;28;20291;-86
2021/09/23 04:41:19;;;;;;;60.57;38.37;;;12.80;86.00;;;;;;5074255;28;20203;-86
2021/09/23 04:43:48;;;;;;;60.40;38.20;;;12.90;85.90;;;;;;5074089;28;20233;-86
2021/09/23 04:46:20;;;;;;;54.00;35.83;;;12.90;85.70;;;;;;5075557;28;20163;-86
2021/09/23 04:48:47;;;;;;;62.87;40.43;;;12.90;85.80;;;;;;5074160;28;20188;-86
2021/09/23 04:51:13;;;;;;;56.67;39.20;;;12.90;85.80;;;;;;5074008;28;20220;-86
2021/09/23 04:53:38;;;;;;;58.13;37.30;;;12.80;86.00;;;;;;5074137;28;20270;-86
2021/09/23 04:56:04;;;;;;;60.83;37.50;;;12.80;86.00;;;;;;5073818;28;20186;-86
2021/09/23 04:58:30;;;;;;;54.93;36.87;;;12.90;85.80;;;;;;5073922;28;20222;-86
2021/09/23 05:00:55;;;;;;;61.87;39.83;;;12.90;85.60;;;;;;5075140;28;20171;-86
2021/09/23 05:03:21;;;;;;;60.73;38.90;;;12.90;85.70;;;;;;5075196;28;20171;-86
2021/09/23 05:05:47;;;;;;;56.53;36.53;;;12.80;85.80;;;;;;5073765;28;20544;-86
2021/09/23 05:08:12;;;;;;;60.30;38.13;;;12.80;85.90;;;;;;5075209;28;20187;-86
2021/09/23 05:10:38;;;;;;;56.70;38.30;;;12.80;86.10;;;;;;5074835;28;20171;-86
2021/09/23 05:13:04;;;;;;;62.97;37.30;;;12.80;86.20;;;;;;5073823;28;20224;-86
2021/09/23 05:15:30;;;;;;;57.00;36.17;;;12.80;86.10;;;;;;5075074;28;20168;-86
2021/09/23 05:17:56;;;;;;;63.40;37.53;;;12.90;85.90;;;;;;5073503;28;20205;-86
2021/09/23 05:20:22;;;;;;;58.13;35.47;;;12.90;85.60;;;;;;5074722;28;20171;-86
2021/09/23 05:22:47;;;;;;;63.37;36.57;;;12.90;85.70;;;;;;5073307;28;20222;-86
2021/09/23 05:25:13;;;;;;;57.07;36.30;;;12.90;85.90;;;;;;5074847;28;20227;-86
2021/09/23 05:27:40;;;;;;;57.17;36.80;;;12.90;85.80;;;;;;5073334;28;20211;-86
2021/09/23 05:30:08;;;;;;;53.80;38.30;;;12.90;85.90;;;;;;5074531;28;20163;-87
2021/09/23 05:32:34;;;;;;;57.23;38.30;;;12.90;86.10;;;;;;5073275;28;20175;-86
2021/09/23 05:35:00;;;;;;;66.40;36.37;;;12.80;86.10;;;;;;5072929;28;20183;-86
2021/09/23 05:37:26;;;;;;;64.10;37.43;;;12.90;86.00;;;;;;5074377;28;20203;-86
2021/09/23 05:39:51;;;;;;;55.57;37.20;;;12.80;86.20;;;;;;5073325;28;20171;-86
2021/09/23 05:42:17;;;;;;;58.97;39.53;;;12.80;86.10;;;;;;5073729;28;20617;-86
2021/09/23 05:44:43;;;;;;;60.50;36.40;;;12.90;86.00;;;;;;5074107;28;20168;-87
2021/09/23 05:47:08;;;;;;;54.17;35.03;;;12.90;86.20;;;;;;5072979;28;20172;-86
2021/09/23 05:49:35;;;;;;;54.30;32.63;;;12.90;86.40;;;;;;5072911;28;20527;-86
2021/09/23 05:52:00;;;;;;;61.13;39.30;;;12.90;86.10;;;;;;5074124;28;20206;-86
2021/09/23 05:54:27;;;;;;;51.23;30.67;;;12.90;86.50;;;;;;5072757;28;20171;-86
2021/09/23 05:56:53;;;;;;;54.37;34.37;;;13.00;86.30;;;;;;5074123;28;20182;-86
2021/09/23 05:59:18;;;;;;;59.00;37.57;;;13.00;86.20;;;;;;5072586;28;20211;-87
2021/09/23 06:01:44;;;;;;;60.53;35.83;;;13.10;86.30;;;;;;5072785;28;20255;-86
2021/09/23 06:04:10;;;;;;;53.83;33.17;;;13.10;86.60;;;;;;5073934;28;20160;-86
2021/09/23 06:06:36;;;;;;;61.80;38.77;;;13.10;86.50;;;;;;5072597;28;20662;-86
2021/09/23 06:09:03;;;;;;;59.83;36.17;;;13.10;86.80;;;;;;5072675;28;20191;-86
2021/09/23 06:11:29;;;;;;;60.40;36.50;;;13.10;87.20;;;;;;5072408;28;20270;-86
2021/09/23 06:13:55;;;;;;;59.10;36.03;;;13.10;87.20;;;;;;5072548;28;20171;-86
2021/09/23 06:16:21;;;;;;;56.30;35.07;;;13.20;87.10;;;;;;5072489;28;20597;-86
2021/09/23 06:18:46;;;;;;;54.03;34.47;;;13.20;87.20;;;;;;5072451;28;20196;-86
2021/09/23 06:21:12;;;;;;;59.80;32.73;;;13.20;87.30;;;;;;5072618;28;20217;-85
2021/09/23 06:23:38;;;;;;;52.70;34.30;;;13.30;87.30;;;;;;5072455;28;20223;-85
2021/09/23 06:26:04;;;;;;;53.83;32.83;;;13.40;87.30;;;;;;5072276;28;20187;-85
2021/09/23 06:28:31;;;;;;;55.60;36.57;;;13.40;87.50;;;;;;5072440;28;20264;-85
2021/09/23 06:30:59;;;;;;;56.17;34.40;;;13.40;87.40;;;;;;5072319;28;20167;-85
2021/09/23 06:33:25;;;;;;;56.70;35.83;;;13.50;87.50;;;;;;5072164;28;20175;-85
2021/09/23 06:35:51;;;;;;;46.80;31.30;;;13.50;87.30;;;;;;5072363;28;20175;-85
2021/09/23 06:38:17;;;;;;;46.77;28.40;;;13.50;87.50;;;;;;5073349;28;20244;-86
2021/09/23 06:40:42;;;;;;;55.77;32.97;;;13.50;87.60;;;;;;5072089;28;20194;-86
2021/09/23 06:43:08;;;;;;;58.23;33.20;;;13.50;87.80;;;;;;5073575;28;20683;-86
2021/09/23 06:45:34;;;;;;;60.47;36.47;;;13.60;87.70;;;;;;5073330;28;20175;-86
2021/09/23 06:47:59;;;;;;;55.20;34.63;;;13.60;87.70;;;;;;5072113;28;20191;-86
2021/09/23 06:50:25;;;;;;;49.23;28.20;;;13.60;87.90;;;;;;5072120;28;20203;-86
2021/09/23 06:52:51;;;;;;;63.20;36.23;;;13.60;87.80;;;;;;5072021;28;20176;-86
2021/09/23 06:55:17;;;;;;;57.27;36.03;;;13.70;87.80;;;;;;5075495;28;20175;-86
2021/09/23 06:57:42;;;;;;;58.27;34.70;;;13.70;87.50;;;;;;5077565;28;20249;-86
2021/09/23 07:00:08;;;;;;;53.80;33.00;;;13.70;87.60;;;;;;5077658;28;20175;-86
2021/09/23 07:02:34;;;;;;;54.80;35.90;;;13.70;87.70;;;;;;5076121;28;20682;-86
2021/09/23 07:05:00;;;;;;;49.10;28.27;;;13.80;87.90;;;;;;5075935;28;20179;-86
2021/09/23 07:07:25;;;;;;;55.53;35.17;;;13.70;87.80;;;;;;5077097;28;20195;-86
2021/09/23 07:09:51;;;;;;;56.93;33.20;;;13.80;87.90;;;;;;5077214;28;20175;-86
2021/09/23 07:12:17;;;;;;;51.87;33.53;;;13.90;87.60;;;;;;5075890;28;20207;-86
2021/09/23 07:14:43;;;;;;;51.40;34.43;;;13.90;87.70;;;;;;5076093;28;20183;-86
2021/09/23 07:17:08;;;;;;;53.67;33.33;;;14.00;87.80;;;;;;5075708;28;20700;-86
2021/09/23 07:19:34;;;;;;;55.97;33.27;;;14.00;87.70;;;;;;5075728;28;20699;-86
2021/09/23 07:22:00;;;;;;;50.30;32.97;;;14.10;87.80;;;;;;5075505;28;20286;-86
2021/09/23 07:24:25;;;;;;;55.50;33.57;;;14.10;87.60;;;;;;5076900;28;20286;-86
2021/09/23 07:26:52;;;;;;;47.60;31.03;;;14.20;87.60;;;;;;5075725;28;20182;-86
2021/09/23 07:29:18;;;;;;;51.33;32.90;;;14.20;87.60;;;;;;5075499;28;20195;-86
2021/09/23 07:31:44;;;;;;;36.20;19.57;;;14.20;87.50;;;;;;5075623;28;20203;-86
2021/09/23 07:34:11;;;;;;;51.77;28.93;;;14.30;87.50;;;;;;5075673;28;20175;-86
2021/09/23 07:36:37;;;;;;;48.40;28.70;;;14.30;87.50;;;;;;5075563;28;20183;-86
2021/09/23 07:39:06;;;;;;;52.00;32.73;;;14.40;87.40;;;;;;5075306;28;20740;-86
2021/09/23 07:41:37;;;;;;;42.70;29.67;;;14.50;87.30;;;;;;5075265;28;20207;-86
2021/09/23 07:44:05;;;;;;;47.03;30.47;;;14.60;87.40;;;;;;5075574;28;20225;-86
2021/09/23 07:46:31;;;;;;;50.00;30.00;;;14.70;87.50;;;;;;5075162;28;20180;-86
2021/09/23 07:48:57;;;;;;;45.47;29.77;;;14.70;87.40;;;;;;5076381;28;20194;-86
2021/09/23 07:51:22;;;;;;;40.33;26.17;;;14.80;87.00;;;;;;5075191;28;20187;-86
2021/09/23 07:53:48;;;;;;;40.90;28.77;;;14.90;86.60;;;;;;5076273;28;20175;-87
2021/09/23 07:56:14;;;;;;;39.70;25.33;;;14.90;86.60;;;;;;5076471;28;20658;-87
2021/09/23 07:58:41;;;;;;;37.97;24.33;;;14.90;86.40;;;;;;5074891;28;20759;-87
2021/09/23 08:01:08;;;;;;;43.00;28.13;;;15.00;86.10;;;;;;5076323;28;20657;-86
2021/09/23 08:03:34;;;;;;;39.80;23.83;;;15.00;86.10;;;;;;5074949;28;20179;-86
2021/09/23 08:06:00;;;;;;;36.60;25.30;;;15.10;86.00;;;;;;5075535;28;20178;-86
2021/09/23 08:08:25;;;;;;;41.70;26.50;;;15.10;85.60;;;;;;5074615;28;20203;-86
2021/09/23 08:10:51;;;;;;;33.25;22.65;;;15.20;86.00;;;;;;5074714;28;20175;-86
2021/09/23 08:13:17;;;;;;;38.95;24.80;;;15.20;85.80;;;;;;5074688;28;20643;-86
2021/09/23 08:15:43;;;;;;;35.87;24.73;;;15.20;85.70;;;;;;5075893;28;20539;-85
2021/09/23 08:18:09;;;;;;;30.57;21.13;;;15.30;85.10;;;;;;5074458;28;20199;-86
2021/09/23 08:20:35;;;;;;;43.08;25.52;;;15.30;85.50;;;;;;5074644;28;20179;-85
2021/09/23 08:23:00;;;;;;;41.53;24.67;;;15.20;85.50;;;;;;5075753;28;20206;-86
2021/09/23 08:25:26;;;;;;;41.25;22.17;;;15.30;85.40;;;;;;5074499;28;20183;-86
2021/09/23 08:27:52;;;;;;;36.42;25.13;;;15.20;85.20;;;;;;5074367;28;20198;-86
2021/09/23 08:30:17;;;;;;;39.67;23.52;;;15.30;85.70;;;;;;5074431;28;20244;-86
2021/09/23 08:32:43;;;;;;;35.17;23.35;;;15.30;85.40;;;;;;5074213;28;20243;-86
2021/09/23 08:35:09;;;;;;;39.70;25.80;;;15.30;85.50;;;;;;5074278;28;20176;-86
2021/09/23 08:37:36;;;;;;;38.83;26.77;;;15.20;85.60;;;;;;5074082;28;20290;-86
2021/09/23 08:40:09;;;;;;;35.35;23.17;;;15.30;86.00;;;;;;5075422;28;20643;-87
2021/09/23 08:42:35;;;;;;;36.45;24.48;;;15.30;85.70;;;;;;5074066;28;20671;-86
2021/09/23 08:45:01;;;;;;;41.70;27.08;;;15.20;85.60;;;;;;5074161;28;20176;-86
2021/09/23 08:47:28;;;;;;;41.42;24.98;;;15.30;86.00;;;;;;5075466;28;20198;-86
2021/09/23 08:49:53;;;;;;;26.98;17.10;;;15.20;85.70;;;;;;5075262;28;20171;-86
2021/09/23 08:52:23;;;;;;;33.78;23.60;;;15.30;85.30;;;;;;5074074;28;20205;-87
2021/09/23 08:54:49;;;;;;;34.92;22.63;;;15.30;85.50;;;;;;5073851;28;20183;-86
2021/09/23 08:57:14;;;;;;;28.27;19.47;;;15.30;85.50;;;;;;5073598;28;20194;-87
2021/09/23 08:59:40;;;;;;;39.03;25.27;;;15.30;85.50;;;;;;5074955;28;20216;-87
2021/09/23 09:02:23;;;;;;;39.20;22.20;;;15.40;85.50;;;;;;5075178;28;20234;-87
2021/09/23 09:04:54;;;;;;;42.90;25.73;;;15.30;85.50;;;;;;5073667;28;20178;-87
2021/09/23 09:07:26;;;;;;;36.70;26.70;;;15.30;85.70;;;;;;5074744;28;20178;-87
2021/09/23 09:10:09;;;;;;;31.27;23.08;;;15.40;85.50;;;;;;5075147;28;20578;-87
2021/09/23 09:12:35;;;;;;;36.30;24.23;;;15.40;85.00;;;;;;5073569;28;20193;-87
2021/09/23 09:15:02;;;;;;;36.85;24.50;;;15.50;85.10;;;;;;5073391;28;20175;-86
2021/09/23 09:17:35;;;;;;;31.10;24.20;;;15.60;85.10;;;;;;5073496;28;20196;-89
2021/09/23 09:20:03;;;;;;;35.80;22.13;;;15.60;85.00;;;;;;5073503;28;20167;-88
2021/09/23 09:22:31;;;;;;;36.20;23.02;;;15.70;84.70;;;;;;5073560;28;20678;-89
2021/09/23 09:25:09;;;;;;;42.47;24.27;;;15.70;84.60;;;;;;5073851;28;20213;-88
2021/09/23 09:27:45;;;;;;;33.88;23.80;;;15.70;85.00;;;;;;5073664;28;20232;-89
2021/09/23 09:30:21;;;;;;;37.35;24.75;;;15.70;85.10;;;;;;5073240;28;20253;-89
2021/09/23 09:32:57;;;;;;;38.33;24.73;;;15.80;84.90;;;;;;5074324;28;20156;-89
2021/09/23 09:35:31;;;;;;;41.95;24.02;;;15.70;84.70;;;;;;5073024;28;20278;-89
2021/09/23 09:37:59;;;;;;;32.00;22.60;;;15.70;84.60;;;;;;5073595;28;20190;-88
2021/09/23 09:40:30;;;;;;;29.88;18.92;;;15.70;84.40;;;;;;5072944;28;20595;-88
2021/09/23 09:42:56;;;;;;;30.08;20.88;;;15.80;84.50;;;;;;5072782;28;20723;-88
2021/09/23 09:45:26;;;;;;;37.67;23.35;;;15.70;84.40;;;;;;5072840;28;20269;-89
2021/09/23 09:47:53;;;;;;;32.35;22.55;;;15.90;84.90;;;;;;5073340;28;20195;-89
2021/09/23 09:50:42;;;;;;;32.08;23.30;;;15.90;84.40;;;;;;5074238;28;20171;-89
2021/09/23 09:53:11;;;;;;;31.30;22.17;;;15.90;84.40;;;;;;5073258;28;20217;-89
2021/09/23 09:55:43;;;;;;;38.83;22.38;;;16.00;84.40;;;;;;5072634;28;20266;-89
2021/09/23 09:58:10;;;;;;;28.10;19.83;;;16.00;84.10;;;;;;5073104;28;20294;-89
2021/09/23 10:00:36;;;;;;;26.77;18.80;;;16.10;83.60;;;;;;5072659;28;20178;-89
2021/09/23 10:03:03;;;;;;;29.60;19.80;;;16.10;83.50;;;;;;5072402;28;20611;-89
2021/09/23 10:05:30;;;;;;;24.65;17.63;;;16.10;83.60;;;;;;5073728;28;20168;-88
2021/09/23 10:07:58;;;;;;;28.73;19.95;;;16.10;83.50;;;;;;5072378;28;20184;-88
2021/09/23 10:10:28;;;;;;;34.83;18.13;;;16.00;83.60;;;;;;5072498;28;20221;-88
2021/09/23 10:12:59;;;;;;;28.02;21.05;;;16.00;83.50;;;;;;5072827;28;20550;-88
2021/09/23 10:15:26;;;;;;;30.05;18.90;;;16.20;83.70;;;;;;5072491;28;20270;-89
2021/09/23 10:17:54;;;;;;;24.50;17.98;;;16.20;83.00;;;;;;5073438;28;20195;-88
2021/09/23 10:20:23;;;;;;;31.40;20.02;;;16.30;83.00;;;;;;5072404;28;20608;-89
2021/09/23 10:22:49;;;;;;;35.00;19.58;;;16.30;83.30;;;;;;5072164;28;20551;-88
2021/09/23 10:25:17;;;;;;;34.67;18.90;;;16.40;82.90;;;;;;5073439;28;20175;-89
2021/09/23 10:28:04;;;;;;;26.73;18.10;;;16.50;83.30;;;;;;5072222;28;20191;-89
2021/09/23 10:30:42;;;;;;;23.42;16.10;;;16.40;82.30;;;;;;5071996;28;20193;-89
2021/09/23 10:33:08;;;;;;;30.48;17.70;;;16.30;82.30;;;;;;5072225;28;20698;-89
2021/09/23 10:35:34;;;;;;;22.73;14.20;;;16.40;82.80;;;;;;5072173;28;20213;-88
2021/09/23 10:38:03;;;;;;;24.48;17.13;;;16.30;82.30;;;;;;5073228;28;20262;-88
2021/09/23 10:40:31;;;;;;;25.25;14.13;;;16.30;82.60;;;;;;5073280;28;20186;-88
2021/09/23 10:43:01;;;;;;;22.55;15.77;;;16.30;82.60;;;;;;5071883;28;20234;-88
2021/09/23 10:45:28;;;;;;;21.65;16.08;;;16.30;82.20;;;;;;5072062;28;20250;-88
2021/09/23 10:47:58;;;;;;;21.35;14.43;;;16.30;82.30;;;;;;5073191;28;20187;-88
2021/09/23 10:50:29;;;;;;;24.38;15.68;;;16.30;82.40;;;;;;5071940;28;20210;-88
2021/09/23 10:52:57;;;;;;;17.25;13.63;;;16.30;82.40;;;;;;5071932;28;20176;-88
2021/09/23 10:55:25;;;;;;;21.10;15.45;;;16.30;82.20;;;;;;5073165;28;20308;-88
2021/09/23 10:57:55;;;;;;;22.05;13.45;;;16.30;82.60;;;;;;5073218;28;20730;-89
2021/09/23 11:00:32;;;;;;;20.55;13.70;;;16.20;82.90;;;;;;5073109;28;20245;-88
2021/09/23 11:03:03;;;;;;;17.27;12.48;;;16.30;82.70;;;;;;5071901;28;20205;-88
2021/09/23 11:05:30;;;;;;;27.75;12.32;;;16.30;82.50;;;;;;5073326;28;20228;-88
2021/09/23 11:07:59;;;;;;;19.40;10.38;;;16.30;82.10;;;;;;5071730;28;20567;-88
2021/09/23 11:10:25;;;;;;;18.17;12.45;;;16.30;82.10;;;;;;5071779;28;20236;-89
2021/09/23 11:12:54;;;;;;;15.32;11.38;;;16.30;82.30;;;;;;5071761;28;20171;-89
2021/09/23 11:15:23;;;;;;;17.98;11.70;;;16.40;82.10;;;;;;5071736;28;20179;-88
2021/09/23 11:17:50;;;;;;;23.33;11.57;;;16.40;82.40;;;;;;5072861;28;20671;-88
2021/09/23 11:20:22;;;;;;;15.52;11.25;;;16.30;82.50;;;;;;5071707;28;20190;-89
2021/09/23 11:23:01;;;;;;;18.75;10.75;;;16.30;82.40;;;;;;5071610;28;20563;-88
2021/09/23 11:25:41;;;;;;;17.88;11.02;;;16.30;82.70;;;;;;5071626;28;20159;-88
2021/09/23 11:28:06;;;;;;;22.58;11.25;;;16.40;82.80;;;;;;5071608;28;20196;-89
2021/09/23 11:30:35;;;;;;;15.07;10.23;;;16.30;82.80;;;;;;5072650;28;20236;-88
2021/09/23 11:33:07;;;;;;;22.48;11.48;;;16.30;82.50;;;;;;5071587;28;20651;-88
2021/09/23 11:35:38;;;;;;;15.18;8.80;;;16.30;82.70;;;;;;5071515;28;20175;-88
2021/09/23 11:38:06;;;;;;;19.70;9.80;;;16.30;82.70;;;;;;5073031;28;20203;-89
2021/09/23 11:40:33;;;;;;;15.20;9.75;;;16.30;83.00;;;;;;5071693;28;20179;-89
2021/09/23 11:43:09;;;;;;;13.30;9.23;;;16.30;83.20;;;;;;5075200;28;20195;-88
2021/09/23 11:45:40;;;;;;;17.45;9.52;;;16.30;83.20;;;;;;5075296;28;20167;-88
2021/09/23 11:48:15;;;;;;;14.60;10.70;;;16.40;83.10;;;;;;5075938;28;20211;-88
2021/09/23 11:50:51;;;;;;;16.38;9.45;;;16.40;83.70;;;;;;5076339;28;20155;-89
2021/09/23 11:53:23;;;;;;;20.67;10.52;;;16.30;84.30;;;;;;5076594;28;20541;-89
2021/09/23 11:55:54;;;;;;;14.07;7.93;;;16.20;85.30;;;;;;5075104;28;20180;-88
2021/09/23 11:58:21;;;;;;;16.58;9.93;;;16.20;85.50;;;;;;5075945;28;20213;-88
2021/09/23 12:00:49;;;;;;;12.45;9.15;;;16.20;85.60;;;;;;5076269;28;20182;-87
2021/09/23 12:03:18;;;;;;;13.13;8.45;;;16.20;85.70;;;;;;5076670;28;20203;-88
2021/09/23 12:05:47;;;;;;;14.85;7.68;;;16.20;85.90;;;;;;5076221;28;20194;-88
2021/09/23 12:08:13;;;;;;;15.23;8.18;;;16.20;86.20;;;;;;5074822;28;20203;-88
2021/09/23 12:10:45;;;;;;;13.48;8.07;;;16.10;86.90;;;;;;5074914;28;20549;-88
2021/09/23 12:13:13;;;;;;;12.90;7.65;;;16.00;87.70;;;;;;5076219;28;20274;-88
2021/09/23 12:15:39;;;;;;;10.45;6.50;;;16.00;87.90;;;;;;5074773;28;20180;-88
2021/09/23 12:18:09;;;;;;;9.43;5.80;;;16.10;87.70;;;;;;5074857;28;20257;-88
2021/09/23 12:20:47;;;;;;;16.38;6.03;;;16.10;87.80;;;;;;5074713;28;20164;-88
2021/09/23 12:23:32;;;;;;;8.48;4.75;;;16.20;87.90;;;;;;5074603;28;20195;-88
2021/09/23 12:26:09;;;;;;;8.10;4.85;;;16.20;87.70;;;;;;5076045;28;20519;-87
2021/09/23 12:28:44;;;;;;;10.68;5.65;;;16.30;88.00;;;;;;5075751;28;20706;-88
2021/09/23 12:31:12;;;;;;;13.70;5.10;;;16.40;88.10;;;;;;5074847;28;20159;-88